sensor_id;sensor_type;location;lat;lon;timestamp;P1;durP1;ratioP1;P2;durP2;ratioP2
63093;SDS011;49183;51.380;0.098;2023-12-14T00:01:18;33.72;;;16.95;;
63093;SDS011;49183;51.380;0.098;2023-12-14T00:03:46;26.92;;;16.35;;
63093;SDS011;49183;51.380;0.098;2023-12-14T00:06:14;27.92;;;15.82;;
63093;SDS011;49183;51.380;0.098;2023-12-14T00:08:42;30.70;;;16.33;;
63093;SDS011;49183;51.380;0.098;2023-12-14T00:11:11;36.78;;;14.90;;
63093;SDS011;49183;51.380;0.098;2023-12-14T00:13:39;30.95;;;16.00;;
63093;SDS011;49183;51.380;0.098;2023-12-14T00:16:08;33.50;;;12.18;;
63093;SDS011;49183;51.380;0.098;2023-12-14T00:18:36;23.70;;;12.88;;
63093;SDS011;49183;51.380;0.098;2023-12-14T00:21:04;22.23;;;13.95;;
63093;SDS011;49183;51.380;0.098;2023-12-14T00:23:35;35.20;;;17.48;;
63093;SDS011;49183;51.380;0.098;2023-12-14T00:26:03;28.42;;;15.23;;
63093;SDS011;49183;51.380;0.098;2023-12-14T00:28:31;33.35;;;16.33;;
63093;SDS011;49183;51.380;0.098;2023-12-14T00:33:29;38.17;;;17.55;;
63093;SDS011;49183;51.380;0.098;2023-12-14T00:35:57;34.40;;;17.30;;
63093;SDS011;49183;51.380;0.098;2023-12-14T00:38:25;31.73;;;17.80;;
63093;SDS011;49183;51.380;0.098;2023-12-14T00:40:53;32.80;;;15.50;;
63093;SDS011;49183;51.380;0.098;2023-12-14T00:43:21;30.98;;;14.65;;
63093;SDS011;49183;51.380;0.098;2023-12-14T00:45:49;30.05;;;15.25;;
63093;SDS011;49183;51.380;0.098;2023-12-14T00:48:17;30.95;;;14.93;;
63093;SDS011;49183;51.380;0.098;2023-12-14T00:50:45;28.35;;;15.27;;
63093;SDS011;49183;51.380;0.098;2023-12-14T00:53:12;30.33;;;14.48;;
63093;SDS011;49183;51.380;0.098;2023-12-14T00:55:43;28.48;;;16.08;;
63093;SDS011;49183;51.380;0.098;2023-12-14T00:58:13;32.92;;;17.63;;
63093;SDS011;49183;51.380;0.098;2023-12-14T01:00:41;32.60;;;17.00;;
63093;SDS011;49183;51.380;0.098;2023-12-14T01:03:10;47.20;;;19.52;;
63093;SDS011;49183;51.380;0.098;2023-12-14T01:05:40;37.95;;;19.23;;
63093;SDS011;49183;51.380;0.098;2023-12-14T01:08:08;40.38;;;18.45;;
63093;SDS011;49183;51.380;0.098;2023-12-14T01:10:36;32.83;;;19.13;;
63093;SDS011;49183;51.380;0.098;2023-12-14T01:13:04;35.17;;;18.45;;
63093;SDS011;49183;51.380;0.098;2023-12-14T01:15:32;37.60;;;18.67;;
63093;SDS011;49183;51.380;0.098;2023-12-14T01:18:00;51.17;;;21.75;;
63093;SDS011;49183;51.380;0.098;2023-12-14T01:20:28;45.60;;;22.88;;
63093;SDS011;49183;51.380;0.098;2023-12-14T01:22:56;42.93;;;21.10;;
63093;SDS011;49183;51.380;0.098;2023-12-14T01:25:24;32.75;;;19.05;;
63093;SDS011;49183;51.380;0.098;2023-12-14T01:27:52;35.65;;;19.45;;
63093;SDS011;49183;51.380;0.098;2023-12-14T01:30:19;35.38;;;21.00;;
63093;SDS011;49183;51.380;0.098;2023-12-14T01:32:47;34.05;;;19.50;;
63093;SDS011;49183;51.380;0.098;2023-12-14T01:35:15;39.03;;;20.42;;
63093;SDS011;49183;51.380;0.098;2023-12-14T01:37:43;32.50;;;19.67;;
63093;SDS011;49183;51.380;0.098;2023-12-14T01:40:11;36.20;;;19.83;;
63093;SDS011;49183;51.380;0.098;2023-12-14T01:42:39;36.08;;;19.80;;
63093;SDS011;49183;51.380;0.098;2023-12-14T01:45:07;38.22;;;20.20;;
63093;SDS011;49183;51.380;0.098;2023-12-14T01:47:35;39.55;;;20.92;;
63093;SDS011;49183;51.380;0.098;2023-12-14T01:50:03;36.05;;;19.85;;
63093;SDS011;49183;51.380;0.098;2023-12-14T01:52:31;39.20;;;20.77;;
63093;SDS011;49183;51.380;0.098;2023-12-14T01:54:59;39.42;;;22.00;;
63093;SDS011;49183;51.380;0.098;2023-12-14T01:57:30;40.90;;;21.60;;
63093;SDS011;49183;51.380;0.098;2023-12-14T01:59:57;38.47;;;20.65;;
63093;SDS011;49183;51.380;0.098;2023-12-14T02:02:25;42.70;;;20.63;;
63093;SDS011;49183;51.380;0.098;2023-12-14T02:04:53;42.53;;;23.02;;
63093;SDS011;49183;51.380;0.098;2023-12-14T02:07:21;48.90;;;22.73;;
63093;SDS011;49183;51.380;0.098;2023-12-14T02:09:49;41.05;;;22.25;;
63093;SDS011;49183;51.380;0.098;2023-12-14T02:12:18;42.55;;;22.73;;
63093;SDS011;49183;51.380;0.098;2023-12-14T02:14:48;36.90;;;21.88;;
63093;SDS011;49183;51.380;0.098;2023-12-14T02:17:16;41.85;;;22.73;;
63093;SDS011;49183;51.380;0.098;2023-12-14T02:19:44;42.30;;;22.67;;
63093;SDS011;49183;51.380;0.098;2023-12-14T02:22:11;44.25;;;23.23;;
63093;SDS011;49183;51.380;0.098;2023-12-14T02:24:39;39.47;;;23.40;;
63093;SDS011;49183;51.380;0.098;2023-12-14T02:27:07;36.63;;;20.42;;
63093;SDS011;49183;51.380;0.098;2023-12-14T02:29:36;37.15;;;20.83;;
63093;SDS011;49183;51.380;0.098;2023-12-14T02:32:04;42.53;;;23.17;;
63093;SDS011;49183;51.380;0.098;2023-12-14T02:34:32;34.03;;;18.17;;
63093;SDS011;49183;51.380;0.098;2023-12-14T02:37:00;39.83;;;21.17;;
63093;SDS011;49183;51.380;0.098;2023-12-14T02:39:28;32.47;;;20.65;;
63093;SDS011;49183;51.380;0.098;2023-12-14T02:41:56;47.95;;;22.98;;
63093;SDS011;49183;51.380;0.098;2023-12-14T02:44:24;39.70;;;21.35;;
63093;SDS011;49183;51.380;0.098;2023-12-14T02:46:52;41.08;;;21.75;;
63093;SDS011;49183;51.380;0.098;2023-12-14T02:49:22;37.55;;;19.90;;
63093;SDS011;49183;51.380;0.098;2023-12-14T02:51:50;41.35;;;21.95;;
63093;SDS011;49183;51.380;0.098;2023-12-14T02:54:18;39.72;;;21.90;;
63093;SDS011;49183;51.380;0.098;2023-12-14T02:56:46;38.17;;;23.38;;
63093;SDS011;49183;51.380;0.098;2023-12-14T02:59:14;38.80;;;22.00;;
63093;SDS011;49183;51.380;0.098;2023-12-14T03:01:42;41.67;;;23.58;;
63093;SDS011;49183;51.380;0.098;2023-12-14T03:04:10;39.85;;;22.38;;
63093;SDS011;49183;51.380;0.098;2023-12-14T03:06:37;47.90;;;24.70;;
63093;SDS011;49183;51.380;0.098;2023-12-14T03:09:05;37.75;;;23.23;;
63093;SDS011;49183;51.380;0.098;2023-12-14T03:11:33;41.85;;;25.48;;
63093;SDS011;49183;51.380;0.098;2023-12-14T03:14:01;43.95;;;23.77;;
63093;SDS011;49183;51.380;0.098;2023-12-14T03:16:29;38.05;;;22.35;;
63093;SDS011;49183;51.380;0.098;2023-12-14T03:18:57;42.60;;;23.45;;
63093;SDS011;49183;51.380;0.098;2023-12-14T03:21:25;43.30;;;23.55;;
63093;SDS011;49183;51.380;0.098;2023-12-14T03:23:52;40.78;;;20.38;;
63093;SDS011;49183;51.380;0.098;2023-12-14T03:26:20;36.50;;;22.63;;
63093;SDS011;49183;51.380;0.098;2023-12-14T03:28:48;40.70;;;21.77;;
63093;SDS011;49183;51.380;0.098;2023-12-14T03:31:16;36.65;;;20.90;;
63093;SDS011;49183;51.380;0.098;2023-12-14T03:33:44;38.53;;;21.40;;
63093;SDS011;49183;51.380;0.098;2023-12-14T03:36:13;38.40;;;21.13;;
63093;SDS011;49183;51.380;0.098;2023-12-14T03:38:40;40.88;;;22.83;;
63093;SDS011;49183;51.380;0.098;2023-12-14T03:41:08;38.03;;;21.85;;
63093;SDS011;49183;51.380;0.098;2023-12-14T03:43:36;42.42;;;23.60;;
63093;SDS011;49183;51.380;0.098;2023-12-14T03:46:04;37.95;;;22.92;;
63093;SDS011;49183;51.380;0.098;2023-12-14T03:48:33;30.88;;;20.30;;
63093;SDS011;49183;51.380;0.098;2023-12-14T03:51:04;39.78;;;21.25;;
63093;SDS011;49183;51.380;0.098;2023-12-14T03:53:32;33.35;;;20.08;;
63093;SDS011;49183;51.380;0.098;2023-12-14T03:56:00;35.15;;;20.13;;
63093;SDS011;49183;51.380;0.098;2023-12-14T03:58:28;38.85;;;22.25;;
63093;SDS011;49183;51.380;0.098;2023-12-14T04:00:56;35.53;;;20.90;;
63093;SDS011;49183;51.380;0.098;2023-12-14T04:03:24;34.75;;;20.95;;
63093;SDS011;49183;51.380;0.098;2023-12-14T04:05:52;38.47;;;21.33;;
63093;SDS011;49183;51.380;0.098;2023-12-14T04:08:20;35.85;;;21.63;;
63093;SDS011;49183;51.380;0.098;2023-12-14T04:10:48;29.83;;;20.05;;
63093;SDS011;49183;51.380;0.098;2023-12-14T04:13:16;35.03;;;20.83;;
63093;SDS011;49183;51.380;0.098;2023-12-14T04:15:44;23.73;;;15.40;;
63093;SDS011;49183;51.380;0.098;2023-12-14T04:18:12;40.13;;;19.35;;
63093;SDS011;49183;51.380;0.098;2023-12-14T04:20:40;37.95;;;19.67;;
63093;SDS011;49183;51.380;0.098;2023-12-14T04:23:07;33.45;;;19.45;;
63093;SDS011;49183;51.380;0.098;2023-12-14T04:25:35;27.95;;;20.60;;
63093;SDS011;49183;51.380;0.098;2023-12-14T04:28:03;31.60;;;18.45;;
63093;SDS011;49183;51.380;0.098;2023-12-14T04:30:31;32.03;;;20.10;;
63093;SDS011;49183;51.380;0.098;2023-12-14T04:32:59;34.20;;;19.88;;
63093;SDS011;49183;51.380;0.098;2023-12-14T04:35:27;31.92;;;21.15;;
63093;SDS011;49183;51.380;0.098;2023-12-14T04:37:55;28.90;;;18.00;;
63093;SDS011;49183;51.380;0.098;2023-12-14T04:40:23;28.73;;;20.00;;
63093;SDS011;49183;51.380;0.098;2023-12-14T04:42:51;34.08;;;19.92;;
63093;SDS011;49183;51.380;0.098;2023-12-14T04:45:19;34.35;;;19.52;;
63093;SDS011;49183;51.380;0.098;2023-12-14T04:47:47;30.35;;;19.38;;
63093;SDS011;49183;51.380;0.098;2023-12-14T04:50:14;37.35;;;21.77;;
63093;SDS011;49183;51.380;0.098;2023-12-14T04:52:42;34.90;;;21.08;;
63093;SDS011;49183;51.380;0.098;2023-12-14T04:55:10;43.72;;;20.48;;
63093;SDS011;49183;51.380;0.098;2023-12-14T04:57:39;32.58;;;19.65;;
63093;SDS011;49183;51.380;0.098;2023-12-14T05:00:06;31.75;;;20.73;;
63093;SDS011;49183;51.380;0.098;2023-12-14T05:02:35;34.13;;;21.05;;
63093;SDS011;49183;51.380;0.098;2023-12-14T05:05:04;36.03;;;20.65;;
63093;SDS011;49183;51.380;0.098;2023-12-14T05:07:32;23.63;;;15.65;;
63093;SDS011;49183;51.380;0.098;2023-12-14T05:10:00;43.30;;;22.27;;
63093;SDS011;49183;51.380;0.098;2023-12-14T05:12:28;36.45;;;20.85;;
63093;SDS011;49183;51.380;0.098;2023-12-14T05:14:56;32.57;;;20.27;;
63093;SDS011;49183;51.380;0.098;2023-12-14T05:17:24;30.33;;;20.17;;
63093;SDS011;49183;51.380;0.098;2023-12-14T05:19:52;30.10;;;19.50;;
63093;SDS011;49183;51.380;0.098;2023-12-14T05:22:20;28.70;;;18.25;;
63093;SDS011;49183;51.380;0.098;2023-12-14T05:24:48;26.83;;;18.92;;
63093;SDS011;49183;51.380;0.098;2023-12-14T05:27:16;34.97;;;18.80;;
63093;SDS011;49183;51.380;0.098;2023-12-14T05:29:45;29.40;;;19.73;;
63093;SDS011;49183;51.380;0.098;2023-12-14T05:32:13;28.52;;;18.08;;
63093;SDS011;49183;51.380;0.098;2023-12-14T05:34:41;38.00;;;19.80;;
63093;SDS011;49183;51.380;0.098;2023-12-14T05:37:09;31.83;;;19.63;;
63093;SDS011;49183;51.380;0.098;2023-12-14T05:39:37;27.77;;;18.02;;
63093;SDS011;49183;51.380;0.098;2023-12-14T05:42:08;38.10;;;18.55;;
63093;SDS011;49183;51.380;0.098;2023-12-14T05:44:37;28.63;;;19.30;;
63093;SDS011;49183;51.380;0.098;2023-12-14T05:47:05;41.63;;;23.35;;
63093;SDS011;49183;51.380;0.098;2023-12-14T05:49:32;47.53;;;31.70;;
63093;SDS011;49183;51.380;0.098;2023-12-14T05:52:00;43.90;;;25.75;;
63093;SDS011;49183;51.380;0.098;2023-12-14T05:54:28;35.22;;;23.33;;
63093;SDS011;49183;51.380;0.098;2023-12-14T05:56:57;35.25;;;16.77;;
63093;SDS011;49183;51.380;0.098;2023-12-14T05:59:24;40.72;;;22.33;;
63093;SDS011;49183;51.380;0.098;2023-12-14T06:01:56;42.58;;;20.48;;
63093;SDS011;49183;51.380;0.098;2023-12-14T06:04:28;33.35;;;20.00;;
63093;SDS011;49183;51.380;0.098;2023-12-14T06:06:56;35.97;;;19.13;;
63093;SDS011;49183;51.380;0.098;2023-12-14T06:09:24;32.58;;;18.10;;
63093;SDS011;49183;51.380;0.098;2023-12-14T06:12:01;28.45;;;17.48;;
63093;SDS011;49183;51.380;0.098;2023-12-14T06:14:30;37.35;;;18.73;;
63093;SDS011;49183;51.380;0.098;2023-12-14T06:16:58;21.07;;;13.20;;
63093;SDS011;49183;51.380;0.098;2023-12-14T06:19:26;31.30;;;17.02;;
63093;SDS011;49183;51.380;0.098;2023-12-14T06:21:54;31.45;;;17.10;;
63093;SDS011;49183;51.380;0.098;2023-12-14T06:24:21;33.47;;;17.17;;
63093;SDS011;49183;51.380;0.098;2023-12-14T06:26:49;31.02;;;17.30;;
63093;SDS011;49183;51.380;0.098;2023-12-14T06:29:17;26.85;;;16.15;;
63093;SDS011;49183;51.380;0.098;2023-12-14T06:31:45;32.60;;;18.30;;
63093;SDS011;49183;51.380;0.098;2023-12-14T06:34:13;30.27;;;15.07;;
63093;SDS011;49183;51.380;0.098;2023-12-14T06:36:44;42.92;;;18.63;;
63093;SDS011;49183;51.380;0.098;2023-12-14T06:39:13;32.58;;;17.17;;
63093;SDS011;49183;51.380;0.098;2023-12-14T06:41:44;34.42;;;17.10;;
63093;SDS011;49183;51.380;0.098;2023-12-14T06:44:11;33.63;;;16.70;;
63093;SDS011;49183;51.380;0.098;2023-12-14T06:46:39;30.65;;;16.83;;
63093;SDS011;49183;51.380;0.098;2023-12-14T06:49:07;33.88;;;17.40;;
63093;SDS011;49183;51.380;0.098;2023-12-14T06:51:35;29.42;;;15.90;;
63093;SDS011;49183;51.380;0.098;2023-12-14T06:54:03;28.27;;;16.65;;
63093;SDS011;49183;51.380;0.098;2023-12-14T06:56:30;32.40;;;16.08;;
63093;SDS011;49183;51.380;0.098;2023-12-14T06:58:59;29.80;;;16.92;;
63093;SDS011;49183;51.380;0.098;2023-12-14T07:01:27;32.03;;;15.63;;
63093;SDS011;49183;51.380;0.098;2023-12-14T07:03:55;35.63;;;15.02;;
63093;SDS011;49183;51.380;0.098;2023-12-14T07:06:22;35.67;;;17.20;;
63093;SDS011;49183;51.380;0.098;2023-12-14T07:08:50;34.00;;;16.15;;
63093;SDS011;49183;51.380;0.098;2023-12-14T07:11:18;30.77;;;16.17;;
63093;SDS011;49183;51.380;0.098;2023-12-14T07:13:45;36.03;;;15.70;;
63093;SDS011;49183;51.380;0.098;2023-12-14T07:16:13;27.63;;;15.40;;
63093;SDS011;49183;51.380;0.098;2023-12-14T07:18:42;28.20;;;13.73;;
63093;SDS011;49183;51.380;0.098;2023-12-14T07:21:10;24.27;;;14.82;;
63093;SDS011;49183;51.380;0.098;2023-12-14T07:23:37;31.23;;;15.23;;
63093;SDS011;49183;51.380;0.098;2023-12-14T07:26:05;32.47;;;16.52;;
63093;SDS011;49183;51.380;0.098;2023-12-14T07:28:34;31.63;;;17.25;;
63093;SDS011;49183;51.380;0.098;2023-12-14T07:31:02;28.67;;;13.55;;
63093;SDS011;49183;51.380;0.098;2023-12-14T07:33:31;30.58;;;16.52;;
63093;SDS011;49183;51.380;0.098;2023-12-14T07:35:59;33.03;;;14.20;;
63093;SDS011;49183;51.380;0.098;2023-12-14T07:38:26;25.52;;;13.63;;
63093;SDS011;49183;51.380;0.098;2023-12-14T07:40:54;29.33;;;14.65;;
63093;SDS011;49183;51.380;0.098;2023-12-14T07:43:22;41.88;;;16.02;;
63093;SDS011;49183;51.380;0.098;2023-12-14T07:45:51;35.03;;;14.77;;
63093;SDS011;49183;51.380;0.098;2023-12-14T07:48:18;29.45;;;14.95;;
63093;SDS011;49183;51.380;0.098;2023-12-14T07:50:46;29.48;;;14.52;;
63093;SDS011;49183;51.380;0.098;2023-12-14T07:53:15;28.38;;;14.68;;
63093;SDS011;49183;51.380;0.098;2023-12-14T07:55:43;22.25;;;12.30;;
63093;SDS011;49183;51.380;0.098;2023-12-14T07:58:11;26.88;;;13.55;;
63093;SDS011;49183;51.380;0.098;2023-12-14T08:00:40;24.33;;;13.30;;
63093;SDS011;49183;51.380;0.098;2023-12-14T08:03:08;14.10;;;8.03;;
63093;SDS011;49183;51.380;0.098;2023-12-14T08:05:36;25.77;;;12.82;;
63093;SDS011;49183;51.380;0.098;2023-12-14T08:08:04;23.40;;;11.35;;
63093;SDS011;49183;51.380;0.098;2023-12-14T08:10:33;25.77;;;10.77;;
63093;SDS011;49183;51.380;0.098;2023-12-14T08:13:01;25.73;;;11.55;;
63093;SDS011;49183;51.380;0.098;2023-12-14T08:15:29;19.30;;;9.90;;
63093;SDS011;49183;51.380;0.098;2023-12-14T08:17:57;21.80;;;11.30;;
63093;SDS011;49183;51.380;0.098;2023-12-14T08:20:25;20.25;;;9.35;;
63093;SDS011;49183;51.380;0.098;2023-12-14T08:22:53;25.80;;;11.15;;
63093;SDS011;49183;51.380;0.098;2023-12-14T08:25:21;24.35;;;11.18;;
63093;SDS011;49183;51.380;0.098;2023-12-14T08:27:49;17.38;;;10.07;;
63093;SDS011;49183;51.380;0.098;2023-12-14T08:30:18;16.83;;;10.07;;
63093;SDS011;49183;51.380;0.098;2023-12-14T08:32:46;19.02;;;10.13;;
63093;SDS011;49183;51.380;0.098;2023-12-14T08:35:14;19.38;;;9.32;;
63093;SDS011;49183;51.380;0.098;2023-12-14T08:37:42;18.60;;;9.90;;
63093;SDS011;49183;51.380;0.098;2023-12-14T08:42:38;13.10;;;8.32;;
63093;SDS011;49183;51.380;0.098;2023-12-14T08:45:07;18.52;;;9.13;;
63093;SDS011;49183;51.380;0.098;2023-12-14T08:47:38;21.98;;;8.95;;
63093;SDS011;49183;51.380;0.098;2023-12-14T08:50:06;20.88;;;8.52;;
63093;SDS011;49183;51.380;0.098;2023-12-14T08:52:36;21.02;;;9.45;;
63093;SDS011;49183;51.380;0.098;2023-12-14T08:55:05;27.02;;;10.63;;
63093;SDS011;49183;51.380;0.098;2023-12-14T08:57:34;20.80;;;8.85;;
63093;SDS011;49183;51.380;0.098;2023-12-14T09:00:02;21.80;;;9.20;;
63093;SDS011;49183;51.380;0.098;2023-12-14T09:02:32;22.42;;;8.77;;
63093;SDS011;49183;51.380;0.098;2023-12-14T09:05:00;19.70;;;9.45;;
63093;SDS011;49183;51.380;0.098;2023-12-14T09:07:28;26.00;;;9.80;;
63093;SDS011;49183;51.380;0.098;2023-12-14T09:09:56;21.13;;;9.05;;
63093;SDS011;49183;51.380;0.098;2023-12-14T09:12:25;15.85;;;6.85;;
63093;SDS011;49183;51.380;0.098;2023-12-14T09:14:52;22.02;;;9.60;;
63093;SDS011;49183;51.380;0.098;2023-12-14T09:17:20;18.00;;;9.23;;
63093;SDS011;49183;51.380;0.098;2023-12-14T09:19:49;29.70;;;10.45;;
63093;SDS011;49183;51.380;0.098;2023-12-14T09:22:16;23.75;;;9.23;;
63093;SDS011;49183;51.380;0.098;2023-12-14T09:24:45;24.25;;;10.90;;
63093;SDS011;49183;51.380;0.098;2023-12-14T09:27:12;17.75;;;9.85;;
63093;SDS011;49183;51.380;0.098;2023-12-14T09:29:40;16.13;;;9.13;;
63093;SDS011;49183;51.380;0.098;2023-12-14T09:32:08;17.33;;;9.00;;
63093;SDS011;49183;51.380;0.098;2023-12-14T09:34:36;11.73;;;6.63;;
63093;SDS011;49183;51.380;0.098;2023-12-14T09:37:05;17.85;;;8.38;;
63093;SDS011;49183;51.380;0.098;2023-12-14T09:39:33;14.05;;;6.60;;
63093;SDS011;49183;51.380;0.098;2023-12-14T09:42:04;16.65;;;8.43;;
63093;SDS011;49183;51.380;0.098;2023-12-14T09:44:34;23.30;;;9.35;;
63093;SDS011;49183;51.380;0.098;2023-12-14T09:47:04;16.23;;;8.38;;
63093;SDS011;49183;51.380;0.098;2023-12-14T09:49:32;12.55;;;5.90;;
63093;SDS011;49183;51.380;0.098;2023-12-14T09:52:01;10.30;;;5.32;;
63093;SDS011;49183;51.380;0.098;2023-12-14T09:54:29;13.85;;;7.20;;
63093;SDS011;49183;51.380;0.098;2023-12-14T09:56:57;12.57;;;8.38;;
63093;SDS011;49183;51.380;0.098;2023-12-14T09:59:25;11.80;;;6.82;;
63093;SDS011;49183;51.380;0.098;2023-12-14T10:01:53;17.63;;;8.98;;
63093;SDS011;49183;51.380;0.098;2023-12-14T10:04:39;20.20;;;9.40;;
63093;SDS011;49183;51.380;0.098;2023-12-14T10:07:07;18.73;;;8.77;;
63093;SDS011;49183;51.380;0.098;2023-12-14T10:09:36;11.63;;;6.30;;
63093;SDS011;49183;51.380;0.098;2023-12-14T10:12:05;19.67;;;7.40;;
63093;SDS011;49183;51.380;0.098;2023-12-14T10:14:36;18.92;;;9.65;;
63093;SDS011;49183;51.380;0.098;2023-12-14T10:17:19;17.42;;;8.30;;
63093;SDS011;49183;51.380;0.098;2023-12-14T10:19:49;15.68;;;9.43;;
63093;SDS011;49183;51.380;0.098;2023-12-14T10:22:17;16.13;;;8.82;;
63093;SDS011;49183;51.380;0.098;2023-12-14T10:24:46;17.40;;;8.27;;
63093;SDS011;49183;51.380;0.098;2023-12-14T10:27:15;13.30;;;8.05;;
63093;SDS011;49183;51.380;0.098;2023-12-14T10:29:44;14.10;;;9.10;;
63093;SDS011;49183;51.380;0.098;2023-12-14T10:32:13;14.70;;;7.53;;
63093;SDS011;49183;51.380;0.098;2023-12-14T10:34:42;12.27;;;8.27;;
63093;SDS011;49183;51.380;0.098;2023-12-14T10:37:10;15.32;;;7.15;;
63093;SDS011;49183;51.380;0.098;2023-12-14T10:39:42;17.48;;;9.20;;
63093;SDS011;49183;51.380;0.098;2023-12-14T10:44:48;14.82;;;7.88;;
63093;SDS011;49183;51.380;0.098;2023-12-14T10:47:43;14.75;;;7.63;;
63093;SDS011;49183;51.380;0.098;2023-12-14T10:50:13;13.95;;;8.43;;
63093;SDS011;49183;51.380;0.098;2023-12-14T10:52:42;15.07;;;8.65;;
63093;SDS011;49183;51.380;0.098;2023-12-14T10:55:18;13.95;;;7.15;;
63093;SDS011;49183;51.380;0.098;2023-12-14T10:57:48;12.80;;;6.40;;
63093;SDS011;49183;51.380;0.098;2023-12-14T11:00:17;10.75;;;7.28;;
63093;SDS011;49183;51.380;0.098;2023-12-14T11:02:45;11.13;;;7.53;;
63093;SDS011;49183;51.380;0.098;2023-12-14T11:05:15;11.57;;;6.68;;
63093;SDS011;49183;51.380;0.098;2023-12-14T11:07:56;11.63;;;6.95;;
63093;SDS011;49183;51.380;0.098;2023-12-14T11:10:39;11.93;;;7.18;;
63093;SDS011;49183;51.380;0.098;2023-12-14T11:13:09;13.52;;;7.72;;
63093;SDS011;49183;51.380;0.098;2023-12-14T11:15:40;10.50;;;7.18;;
63093;SDS011;49183;51.380;0.098;2023-12-14T11:25:54;10.55;;;8.15;;
63093;SDS011;49183;51.380;0.098;2023-12-14T11:28:27;12.82;;;10.55;;
63093;SDS011;49183;51.380;0.098;2023-12-14T11:30:57;12.98;;;10.60;;
63093;SDS011;49183;51.380;0.098;2023-12-14T11:33:26;11.02;;;9.95;;
63093;SDS011;49183;51.380;0.098;2023-12-14T11:35:56;16.70;;;11.60;;
63093;SDS011;49183;51.380;0.098;2023-12-14T11:38:24;13.02;;;11.73;;
63093;SDS011;49183;51.380;0.098;2023-12-14T11:40:53;11.98;;;10.40;;
63093;SDS011;49183;51.380;0.098;2023-12-14T11:43:21;11.63;;;10.43;;
63093;SDS011;49183;51.380;0.098;2023-12-14T11:45:51;11.68;;;9.02;;
63093;SDS011;49183;51.380;0.098;2023-12-14T11:48:19;12.25;;;9.13;;
63093;SDS011;49183;51.380;0.098;2023-12-14T11:50:48;10.20;;;7.32;;
63093;SDS011;49183;51.380;0.098;2023-12-14T11:53:16;7.25;;;6.55;;
63093;SDS011;49183;51.380;0.098;2023-12-14T11:55:45;6.38;;;5.25;;
63093;SDS011;49183;51.380;0.098;2023-12-14T11:58:14;9.57;;;6.10;;
63093;SDS011;49183;51.380;0.098;2023-12-14T12:00:43;6.13;;;4.50;;
63093;SDS011;49183;51.380;0.098;2023-12-14T12:03:18;7.47;;;5.47;;
63093;SDS011;49183;51.380;0.098;2023-12-14T12:05:49;9.25;;;5.65;;
63093;SDS011;49183;51.380;0.098;2023-12-14T12:08:19;8.35;;;5.32;;
63093;SDS011;49183;51.380;0.098;2023-12-14T12:10:48;8.40;;;5.18;;
63093;SDS011;49183;51.380;0.098;2023-12-14T12:15:46;9.00;;;6.28;;
63093;SDS011;49183;51.380;0.098;2023-12-14T12:23:13;7.53;;;6.45;;
63093;SDS011;49183;51.380;0.098;2023-12-14T12:25:41;13.15;;;6.30;;
63093;SDS011;49183;51.380;0.098;2023-12-14T12:28:09;7.80;;;6.35;;
63093;SDS011;49183;51.380;0.098;2023-12-14T12:30:38;8.13;;;5.30;;
63093;SDS011;49183;51.380;0.098;2023-12-14T12:33:08;7.22;;;5.82;;
63093;SDS011;49183;51.380;0.098;2023-12-14T12:35:37;6.35;;;5.75;;
63093;SDS011;49183;51.380;0.098;2023-12-14T12:40:34;11.02;;;8.52;;
63093;SDS011;49183;51.380;0.098;2023-12-14T12:43:04;11.63;;;8.77;;
63093;SDS011;49183;51.380;0.098;2023-12-14T12:45:32;6.07;;;5.43;;
63093;SDS011;49183;51.380;0.098;2023-12-14T12:48:03;6.85;;;5.35;;
63093;SDS011;49183;51.380;0.098;2023-12-14T12:50:35;7.65;;;5.68;;
63093;SDS011;49183;51.380;0.098;2023-12-14T12:53:03;9.53;;;6.17;;
63093;SDS011;49183;51.380;0.098;2023-12-14T12:55:33;12.25;;;6.30;;
63093;SDS011;49183;51.380;0.098;2023-12-14T12:58:01;10.10;;;6.17;;
63093;SDS011;49183;51.380;0.098;2023-12-14T13:00:32;8.38;;;6.28;;
63093;SDS011;49183;51.380;0.098;2023-12-14T13:03:03;14.65;;;6.60;;
63093;SDS011;49183;51.380;0.098;2023-12-14T13:05:32;8.88;;;6.25;;
63093;SDS011;49183;51.380;0.098;2023-12-14T13:08:02;17.02;;;6.82;;
63093;SDS011;49183;51.380;0.098;2023-12-14T13:10:32;15.05;;;6.53;;
63093;SDS011;49183;51.380;0.098;2023-12-14T13:13:01;10.77;;;5.57;;
63093;SDS011;49183;51.380;0.098;2023-12-14T13:15:31;14.77;;;5.55;;
63093;SDS011;49183;51.380;0.098;2023-12-14T13:18:00;15.40;;;5.10;;
63093;SDS011;49183;51.380;0.098;2023-12-14T13:20:29;14.32;;;4.80;;
63093;SDS011;49183;51.380;0.098;2023-12-14T13:25:28;17.00;;;4.40;;
63093;SDS011;49183;51.380;0.098;2023-12-14T13:27:57;30.45;;;8.13;;
63093;SDS011;49183;51.380;0.098;2023-12-14T13:30:26;25.55;;;5.57;;
63093;SDS011;49183;51.380;0.098;2023-12-14T13:32:56;20.08;;;5.47;;
63093;SDS011;49183;51.380;0.098;2023-12-14T13:35:25;24.10;;;5.70;;
63093;SDS011;49183;51.380;0.098;2023-12-14T13:37:55;26.30;;;6.97;;
63093;SDS011;49183;51.380;0.098;2023-12-14T13:40:27;33.13;;;7.88;;
63093;SDS011;49183;51.380;0.098;2023-12-14T13:42:55;20.23;;;4.70;;
63093;SDS011;49183;51.380;0.098;2023-12-14T13:45:34;35.23;;;8.67;;
63093;SDS011;49183;51.380;0.098;2023-12-14T13:48:01;34.13;;;7.40;;
63093;SDS011;49183;51.380;0.098;2023-12-14T13:50:30;34.30;;;5.90;;
63093;SDS011;49183;51.380;0.098;2023-12-14T13:52:58;34.97;;;8.77;;
63093;SDS011;49183;51.380;0.098;2023-12-14T13:55:26;27.00;;;7.30;;
63093;SDS011;49183;51.380;0.098;2023-12-14T13:57:54;27.55;;;6.25;;
63093;SDS011;49183;51.380;0.098;2023-12-14T14:00:25;27.20;;;6.13;;
63093;SDS011;49183;51.380;0.098;2023-12-14T14:02:53;28.15;;;5.68;;
63093;SDS011;49183;51.380;0.098;2023-12-14T14:05:22;26.83;;;5.70;;
63093;SDS011;49183;51.380;0.098;2023-12-14T14:07:51;21.33;;;5.10;;
63093;SDS011;49183;51.380;0.098;2023-12-14T14:10:19;16.05;;;4.13;;
63093;SDS011;49183;51.380;0.098;2023-12-14T14:12:47;25.58;;;7.45;;
63093;SDS011;49183;51.380;0.098;2023-12-14T14:15:16;24.50;;;5.38;;
63093;SDS011;49183;51.380;0.098;2023-12-14T14:17:44;28.88;;;6.43;;
63093;SDS011;49183;51.380;0.098;2023-12-14T14:20:12;21.05;;;5.18;;
63093;SDS011;49183;51.380;0.098;2023-12-14T14:22:40;35.05;;;5.22;;
63093;SDS011;49183;51.380;0.098;2023-12-14T14:25:08;21.77;;;5.43;;
63093;SDS011;49183;51.380;0.098;2023-12-14T14:27:36;25.60;;;8.18;;
63093;SDS011;49183;51.380;0.098;2023-12-14T14:30:05;26.42;;;4.85;;
63093;SDS011;49183;51.380;0.098;2023-12-14T14:32:35;22.83;;;6.22;;
63093;SDS011;49183;51.380;0.098;2023-12-14T14:35:05;29.25;;;6.60;;
63093;SDS011;49183;51.380;0.098;2023-12-14T14:40:03;37.83;;;7.20;;
63093;SDS011;49183;51.380;0.098;2023-12-14T14:42:32;33.00;;;7.53;;
63093;SDS011;49183;51.380;0.098;2023-12-14T14:45:00;18.80;;;5.82;;
63093;SDS011;49183;51.380;0.098;2023-12-14T14:47:28;32.42;;;6.93;;
63093;SDS011;49183;51.380;0.098;2023-12-14T14:49:56;26.02;;;6.28;;
63093;SDS011;49183;51.380;0.098;2023-12-14T14:52:31;37.33;;;8.05;;
63093;SDS011;49183;51.380;0.098;2023-12-14T14:54:59;23.60;;;7.63;;
63093;SDS011;49183;51.380;0.098;2023-12-14T14:57:30;26.27;;;7.55;;
63093;SDS011;49183;51.380;0.098;2023-12-14T14:59:59;34.17;;;9.25;;
63093;SDS011;49183;51.380;0.098;2023-12-14T15:02:28;27.08;;;6.70;;
63093;SDS011;49183;51.380;0.098;2023-12-14T15:04:55;20.77;;;6.50;;
63093;SDS011;49183;51.380;0.098;2023-12-14T15:07:23;29.98;;;6.45;;